createdAt,value
2017-01-22T00:00:27.015Z,7
2017-01-22T00:01:40.464Z,7
2017-01-22T00:02:54.088Z,7
2017-01-22T00:04:07.578Z,7
2017-01-22T00:05:21.092Z,7
2017-01-22T00:06:34.845Z,7
2017-01-22T00:07:48.369Z,7
2017-01-22T00:09:01.834Z,7
2017-01-22T00:10:15.371Z,7
2017-01-22T00:11:28.857Z,7
2017-01-22T00:12:42.677Z,7
2017-01-22T00:13:56.225Z,7
2017-01-22T00:15:09.727Z,7
2017-01-22T00:16:23.237Z,7
2017-01-22T00:17:36.648Z,7
2017-01-22T00:18:50.749Z,7
2017-01-22T00:20:04.334Z,7
2017-01-22T00:21:17.820Z,7
2017-01-22T00:22:31.308Z,7
2017-01-22T00:23:44.847Z,7
2017-01-22T00:24:58.613Z,7
2017-01-22T00:26:12.156Z,7
2017-01-22T00:27:25.749Z,7
2017-01-22T00:28:41.454Z,7
2017-01-22T00:29:54.970Z,7
2017-01-22T00:31:08.759Z,7
2017-01-22T00:32:22.650Z,7
2017-01-22T00:33:36.115Z,7
2017-01-22T00:34:49.730Z,7
2017-01-22T00:36:03.174Z,7
2017-01-22T00:37:16.966Z,8
2017-01-22T00:38:30.494Z,8
2017-01-22T00:39:44.047Z,8
2017-01-22T00:40:57.949Z,8
2017-01-22T00:42:11.541Z,8
2017-01-22T00:43:25.335Z,8
2017-01-22T00:44:39.308Z,8
2017-01-22T00:45:52.878Z,8
2017-01-22T00:47:09.654Z,8
2017-01-22T00:48:23.475Z,8
2017-01-22T00:49:44.338Z,8
2017-01-22T00:50:57.916Z,8
2017-01-22T00:52:11.415Z,8
2017-01-22T00:53:24.987Z,8
2017-01-22T00:54:43.386Z,8
2017-01-22T00:56:04.508Z,8
2017-01-22T00:57:30.063Z,8
2017-01-22T00:58:53.181Z,7
2017-01-22T01:00:12.845Z,7
2017-01-22T01:01:33.217Z,7
2017-01-22T01:02:53.598Z,7
2017-01-22T01:04:13.721Z,7
2017-01-22T01:05:28.637Z,7
2017-01-22T01:06:42.752Z,7
2017-01-22T01:07:56.282Z,7
2017-01-22T01:09:10.298Z,7
2017-01-22T01:10:24.190Z,7
2017-01-22T01:11:37.794Z,7
2017-01-22T01:12:51.686Z,6
2017-01-22T01:14:05.168Z,6
2017-01-22T01:15:18.927Z,6
2017-01-22T01:16:33.615Z,6
2017-01-22T01:17:47.063Z,6
2017-01-22T01:19:00.754Z,6
2017-01-22T01:20:15.325Z,6
2017-01-22T01:21:29.337Z,6
2017-01-22T01:22:44.035Z,6
2017-01-22T01:23:59.158Z,6
2017-01-22T01:25:13.867Z,6
2017-01-22T01:26:28.214Z,6
2017-01-22T01:27:43.740Z,6
2017-01-22T01:28:59.217Z,6
2017-01-22T01:30:13.998Z,6
2017-01-22T01:31:28.415Z,6
2017-01-22T01:32:43.141Z,6
2017-01-22T01:33:58.337Z,6
2017-01-22T01:35:11.978Z,6
2017-01-22T01:36:26.284Z,6
2017-01-22T01:37:41.303Z,6
2017-01-22T01:38:54.989Z,6
2017-01-22T01:40:08.983Z,6
2017-01-22T01:41:22.760Z,6
2017-01-22T01:42:36.619Z,6
2017-01-22T01:43:51.677Z,6
2017-01-22T01:45:05.699Z,6
2017-01-22T01:46:22.356Z,6
2017-01-22T01:47:35.923Z,6
2017-01-22T01:48:49.391Z,6
2017-01-22T01:50:03.214Z,6
2017-01-22T01:51:16.658Z,6
2017-01-22T01:52:30.071Z,6
2017-01-22T01:53:43.551Z,6
2017-01-22T01:54:56.972Z,6
2017-01-22T01:56:10.730Z,6
2017-01-22T01:57:24.185Z,6
2017-01-22T01:58:37.670Z,6
2017-01-22T01:59:51.154Z,6
2017-01-22T02:01:04.603Z,6
2017-01-22T02:02:18.333Z,6
2017-01-22T02:03:31.852Z,6
2017-01-22T02:04:45.719Z,6
2017-01-22T02:05:59.180Z,6
2017-01-22T02:07:31.844Z,6
2017-01-22T02:08:45.998Z,6
2017-01-22T02:09:59.418Z,6
2017-01-22T02:11:12.904Z,6
2017-01-22T02:12:26.326Z,6
2017-01-22T02:13:39.838Z,6
2017-01-22T02:14:53.578Z,6
2017-01-22T02:16:07.025Z,6
2017-01-22T02:17:20.943Z,6
2017-01-22T02:18:34.449Z,6
2017-01-22T02:19:47.923Z,6
2017-01-22T02:21:01.725Z,6
2017-01-22T02:22:15.242Z,6
2017-01-22T02:23:28.740Z,6
2017-01-22T02:24:42.196Z,6
2017-01-22T02:25:55.921Z,6
2017-01-22T02:27:10.161Z,6
2017-01-22T02:28:23.593Z,6
2017-01-22T02:29:37.067Z,6
2017-01-22T02:30:50.504Z,6
2017-01-22T02:32:04.063Z,6
2017-01-22T02:33:17.913Z,6
2017-01-22T02:34:31.512Z,6
2017-01-22T02:35:45.198Z,6
2017-01-22T02:36:59.173Z,6
2017-01-22T02:38:12.743Z,6
2017-01-22T02:39:26.711Z,5
2017-01-22T02:40:40.402Z,5
2017-01-22T02:41:54.046Z,5
2017-01-22T02:43:08.075Z,5
2017-01-22T02:44:21.519Z,5
2017-01-22T02:45:35.273Z,5
2017-01-22T02:46:48.687Z,5
2017-01-22T02:48:02.617Z,5
2017-01-22T02:49:16.063Z,5
2017-01-22T02:50:29.560Z,5
2017-01-22T02:51:43.315Z,5
2017-01-22T02:52:56.699Z,5
2017-01-22T02:54:10.365Z,5
2017-01-22T02:55:23.805Z,5
2017-01-22T02:56:38.525Z,5
2017-01-22T02:57:52.267Z,5
2017-01-22T02:59:05.769Z,5
2017-01-22T03:00:19.208Z,5
2017-01-22T03:01:33.941Z,5
2017-01-22T03:02:50.048Z,5
2017-01-22T03:04:03.847Z,5
2017-01-22T03:05:17.320Z,5
2017-01-22T03:06:45.671Z,5
2017-01-22T03:07:59.205Z,5
2017-01-22T03:09:12.668Z,5
2017-01-22T03:10:26.528Z,6
2017-01-22T03:11:39.962Z,5
2017-01-22T03:12:53.450Z,5
2017-01-22T03:14:06.928Z,6
2017-01-22T03:15:20.325Z,6
2017-01-22T03:16:34.092Z,6
2017-01-22T03:17:47.632Z,6
2017-01-22T03:19:01.068Z,6
2017-01-22T03:20:15.073Z,6
2017-01-22T03:21:28.528Z,6
2017-01-22T03:22:42.306Z,6
2017-01-22T03:23:55.744Z,6
2017-01-22T03:25:09.189Z,6
2017-01-22T03:26:22.632Z,6
2017-01-22T03:27:36.180Z,6
2017-01-22T03:28:51.574Z,6
2017-01-22T03:30:05.029Z,6
2017-01-22T03:31:18.452Z,6
2017-01-22T03:32:31.915Z,6
2017-01-22T03:33:45.414Z,6
2017-01-22T03:34:59.140Z,6
2017-01-22T03:36:13.065Z,6
2017-01-22T03:37:26.561Z,6
2017-01-22T03:38:40.004Z,6
2017-01-22T03:39:53.901Z,6
2017-01-22T03:41:07.619Z,6
2017-01-22T03:42:21.112Z,6
2017-01-22T03:43:34.603Z,6
2017-01-22T03:44:48.083Z,6
2017-01-22T03:46:01.566Z,6
2017-01-22T03:47:15.333Z,6
2017-01-22T03:48:28.789Z,6
2017-01-22T03:49:42.303Z,6
2017-01-22T03:50:55.721Z,6
2017-01-22T03:52:09.153Z,6
2017-01-22T03:53:22.844Z,6
2017-01-22T03:54:36.329Z,6
2017-01-22T03:55:49.805Z,6
2017-01-22T03:57:03.240Z,6
2017-01-22T03:58:16.833Z,6
2017-01-22T03:59:30.571Z,6
2017-01-22T04:00:44.041Z,6
2017-01-22T04:01:57.476Z,6
2017-01-22T04:03:10.882Z,6
2017-01-22T04:04:24.485Z,6
2017-01-22T04:05:38.289Z,6
2017-01-22T04:06:51.727Z,6
2017-01-22T04:08:05.174Z,6
2017-01-22T04:09:18.626Z,6
2017-01-22T04:10:32.462Z,6
2017-01-22T04:11:46.239Z,6
2017-01-22T04:12:59.711Z,6
2017-01-22T04:14:13.135Z,6
2017-01-22T04:15:26.612Z,6
2017-01-22T04:16:40.090Z,6
2017-01-22T04:17:53.750Z,5
2017-01-22T04:19:09.336Z,5
2017-01-22T04:20:22.774Z,5
2017-01-22T04:21:36.238Z,5
2017-01-22T04:22:49.793Z,5
2017-01-22T04:24:04.030Z,5
2017-01-22T04:25:17.615Z,5
2017-01-22T04:26:31.161Z,5
2017-01-22T04:27:44.721Z,5
2017-01-22T04:28:58.395Z,5
2017-01-22T04:30:12.289Z,5
2017-01-22T04:31:25.833Z,5
2017-01-22T04:32:39.524Z,5
2017-01-22T04:33:53.090Z,5
2017-01-22T04:35:06.718Z,5
2017-01-22T04:36:20.595Z,5
2017-01-22T04:37:34.216Z,5
2017-01-22T04:38:47.683Z,5
2017-01-22T04:40:01.281Z,5
2017-01-22T04:41:15.226Z,5
2017-01-22T04:42:29.215Z,5
2017-01-22T04:43:42.977Z,5
2017-01-22T04:44:56.585Z,5
2017-01-22T04:46:10.155Z,5
2017-01-22T04:47:23.834Z,5
2017-01-22T04:48:37.972Z,5
2017-01-22T04:49:52.221Z,5
2017-01-22T04:51:05.831Z,5
2017-01-22T04:52:19.370Z,5
2017-01-22T04:53:32.869Z,5
2017-01-22T04:54:46.829Z,5
2017-01-22T04:56:00.372Z,5
2017-01-22T04:57:14.027Z,5
2017-01-22T04:58:28.028Z,5
2017-01-22T04:59:42.521Z,5
2017-01-22T05:00:57.078Z,5
2017-01-22T05:02:10.513Z,5
2017-01-22T05:03:24.011Z,5
2017-01-22T05:04:39.115Z,5
2017-01-22T05:05:52.669Z,5
2017-01-22T05:07:07.334Z,5
2017-01-22T05:08:20.815Z,5
2017-01-22T05:09:34.963Z,5
2017-01-22T05:10:49.305Z,5
2017-01-22T05:12:03.018Z,5
2017-01-22T05:13:16.906Z,5
2017-01-22T05:14:31.648Z,5
2017-01-22T05:15:45.261Z,5
2017-01-22T05:16:58.967Z,5
2017-01-22T05:18:13.880Z,5
2017-01-22T05:19:27.965Z,5
2017-01-22T05:20:41.789Z,5
2017-01-22T05:21:55.318Z,5
2017-01-22T05:23:09.041Z,5
2017-01-22T05:24:22.624Z,5
2017-01-22T05:25:36.771Z,5
2017-01-22T05:26:50.603Z,5
2017-01-22T05:28:04.428Z,5
2017-01-22T05:29:18.087Z,5
2017-01-22T05:30:31.764Z,5
2017-01-22T05:31:45.480Z,5
2017-01-22T05:32:58.926Z,5
2017-01-22T05:34:12.405Z,5
2017-01-22T05:35:28.099Z,5
2017-01-22T05:36:41.609Z,5
2017-01-22T05:37:55.367Z,5
2017-01-22T05:39:08.908Z,5
2017-01-22T05:40:22.495Z,5
2017-01-22T05:41:37.196Z,5
2017-01-22T05:42:50.678Z,5
2017-01-22T05:44:04.504Z,5
2017-01-22T05:45:18.025Z,5
2017-01-22T05:46:31.605Z,5
2017-01-22T05:47:45.107Z,5
2017-01-22T05:48:58.605Z,5
2017-01-22T05:50:31.591Z,5
2017-01-22T05:51:45.154Z,5
2017-01-22T05:52:58.600Z,5
2017-01-22T05:54:12.578Z,5
2017-01-22T05:55:26.196Z,5
2017-01-22T05:56:40.547Z,5
2017-01-22T05:57:54.064Z,5
2017-01-22T05:59:07.944Z,5
2017-01-22T06:00:21.384Z,5
2017-01-22T06:01:34.905Z,5
2017-01-22T06:02:49.100Z,5
2017-01-22T06:04:02.641Z,5
2017-01-22T06:05:16.133Z,5
2017-01-22T06:06:29.581Z,5
2017-01-22T06:07:43.070Z,5
2017-01-22T06:08:56.822Z,5
2017-01-22T06:10:10.716Z,5
2017-01-22T06:11:24.313Z,5
2017-01-22T06:12:37.897Z,5
2017-01-22T06:13:51.360Z,5
2017-01-22T06:15:05.311Z,5
2017-01-22T06:16:18.857Z,5
2017-01-22T06:17:32.348Z,5
2017-01-22T06:18:45.869Z,5
2017-01-22T06:19:59.281Z,5
2017-01-22T06:21:13.142Z,5
2017-01-22T06:22:26.618Z,5
2017-01-22T06:23:40.391Z,5
2017-01-22T06:24:53.870Z,4
2017-01-22T06:26:07.314Z,5
2017-01-22T06:27:21.078Z,4
2017-01-22T06:28:36.385Z,4
2017-01-22T06:29:50.221Z,4
2017-01-22T06:31:03.636Z,4
2017-01-22T06:32:17.087Z,4
2017-01-22T06:33:30.930Z,4
2017-01-22T06:34:44.359Z,4
2017-01-22T06:35:58.352Z,4
2017-01-22T06:37:12.214Z,4
2017-01-22T06:38:25.642Z,4
2017-01-22T06:39:39.410Z,4
2017-01-22T06:40:53.058Z,4
2017-01-22T06:42:06.496Z,4
2017-01-22T06:43:19.953Z,4
2017-01-22T06:44:33.446Z,4
2017-01-22T06:45:47.593Z,4
2017-01-22T06:47:01.037Z,4
2017-01-22T06:48:14.464Z,4
2017-01-22T06:49:28.065Z,4
2017-01-22T06:50:42.300Z,4
2017-01-22T06:51:58.217Z,4
2017-01-22T06:53:11.676Z,4
2017-01-22T06:54:25.105Z,4
2017-01-22T06:55:38.579Z,4
2017-01-22T06:56:52.010Z,4
2017-01-22T06:58:05.751Z,4
2017-01-22T06:59:19.718Z,4
2017-01-22T07:00:33.187Z,4
2017-01-22T07:01:47.052Z,4
2017-01-22T07:03:00.484Z,4
2017-01-22T07:04:14.201Z,4
2017-01-22T07:05:27.666Z,4
2017-01-22T07:06:41.077Z,4
2017-01-22T07:07:54.488Z,4
2017-01-22T07:09:07.939Z,4
2017-01-22T07:10:21.660Z,4
2017-01-22T07:11:35.523Z,4
2017-01-22T07:12:48.936Z,4
2017-01-22T07:14:02.343Z,4
2017-01-22T07:15:15.841Z,4
2017-01-22T07:16:29.705Z,4
2017-01-22T07:17:43.170Z,4
2017-01-22T07:18:56.637Z,4
2017-01-22T07:20:10.070Z,4
2017-01-22T07:21:23.607Z,4
2017-01-22T07:22:37.760Z,4
2017-01-22T07:23:51.223Z,4
2017-01-22T07:25:05.087Z,4
2017-01-22T07:26:18.651Z,4
2017-01-22T07:27:32.458Z,4
2017-01-22T07:28:46.275Z,4
2017-01-22T07:30:00.519Z,4
2017-01-22T07:31:14.291Z,5
2017-01-22T07:32:27.816Z,5
2017-01-22T07:33:41.334Z,5
2017-01-22T07:34:55.146Z,5
2017-01-22T07:36:09.024Z,5
2017-01-22T07:37:23.711Z,5
2017-01-22T07:38:37.256Z,5
2017-01-22T07:39:50.729Z,5
2017-01-22T07:41:04.643Z,5
2017-01-22T07:42:18.555Z,5
2017-01-22T07:43:32.100Z,5
2017-01-22T07:44:46.437Z,5
2017-01-22T07:46:00.317Z,5
2017-01-22T07:47:16.107Z,5
2017-01-22T07:48:29.641Z,5
2017-01-22T07:49:43.489Z,4
2017-01-22T07:50:56.976Z,5
2017-01-22T07:52:11.681Z,5
2017-01-22T07:53:25.648Z,5
2017-01-22T07:54:39.086Z,5
2017-01-22T07:55:52.621Z,5
2017-01-22T07:57:06.459Z,5
2017-01-22T07:58:20.552Z,4
2017-01-22T07:59:34.440Z,4
2017-01-22T08:00:49.471Z,5
2017-01-22T08:02:03.045Z,4
2017-01-22T08:03:16.535Z,4
2017-01-22T08:04:30.104Z,4
2017-01-22T08:05:43.913Z,4
2017-01-22T08:06:57.528Z,4
2017-01-22T08:08:13.358Z,4
2017-01-22T08:09:27.311Z,4
2017-01-22T08:10:41.473Z,4
2017-01-22T08:11:55.287Z,4
2017-01-22T08:13:08.920Z,4
2017-01-22T08:14:22.500Z,4
2017-01-22T08:15:36.079Z,4
2017-01-22T08:16:49.525Z,4
2017-01-22T08:18:03.654Z,5
2017-01-22T08:19:17.115Z,5
2017-01-22T08:20:30.645Z,5
2017-01-22T08:21:44.219Z,4
2017-01-22T08:22:57.908Z,5
2017-01-22T08:24:11.683Z,5
2017-01-22T08:25:26.435Z,5
2017-01-22T08:26:40.067Z,5
2017-01-22T08:27:54.855Z,5
2017-01-22T08:29:08.357Z,5
2017-01-22T08:30:22.328Z,5
2017-01-22T08:31:35.908Z,5
2017-01-22T08:32:49.540Z,5
2017-01-22T08:34:03.255Z,5
2017-01-22T08:35:16.902Z,5
2017-01-22T08:36:36.121Z,5
2017-01-22T08:37:49.592Z,5
2017-01-22T08:39:03.019Z,5
2017-01-22T08:40:17.171Z,5
2017-01-22T08:41:31.596Z,5
2017-01-22T08:42:45.479Z,5
2017-01-22T08:43:58.926Z,5
2017-01-22T08:45:12.396Z,5
2017-01-22T08:46:25.888Z,5
2017-01-22T08:47:39.458Z,5
2017-01-22T08:48:53.719Z,5
2017-01-22T08:50:07.162Z,5
2017-01-22T08:51:20.723Z,5
2017-01-22T08:52:34.253Z,5
2017-01-22T08:53:47.746Z,5
2017-01-22T08:55:01.500Z,5
2017-01-22T08:56:14.946Z,5
2017-01-22T08:57:28.943Z,5
2017-01-22T08:58:42.688Z,5
2017-01-22T08:59:56.206Z,5
2017-01-22T09:01:09.983Z,5
2017-01-22T09:02:23.552Z,5
2017-01-22T09:03:37.034Z,5
2017-01-22T09:04:50.517Z,5
2017-01-22T09:06:04.006Z,5
2017-01-22T09:07:17.820Z,5
2017-01-22T09:08:31.442Z,5
2017-01-22T09:09:45.109Z,5
2017-01-22T09:10:58.736Z,6
2017-01-22T09:12:12.233Z,6
2017-01-22T09:13:26.160Z,6
2017-01-22T09:14:39.723Z,6
2017-01-22T09:15:53.237Z,6
2017-01-22T09:17:06.802Z,6
2017-01-22T09:18:20.346Z,6
2017-01-22T09:19:34.217Z,6
2017-01-22T09:20:47.672Z,6
2017-01-22T09:22:01.101Z,6
2017-01-22T09:23:14.526Z,6
2017-01-22T09:24:30.298Z,6
2017-01-22T09:25:44.143Z,6
2017-01-22T09:26:57.636Z,6
2017-01-22T09:28:11.235Z,6
2017-01-22T09:29:25.045Z,7
2017-01-22T09:30:38.597Z,7
2017-01-22T09:31:52.342Z,7
2017-01-22T09:33:05.834Z,7
2017-01-22T09:34:19.770Z,7
2017-01-22T09:35:33.749Z,7
2017-01-22T09:36:47.211Z,7
2017-01-22T09:38:00.997Z,7
2017-01-22T09:39:15.776Z,7
2017-01-22T09:40:29.336Z,7
2017-01-22T09:41:42.757Z,7
2017-01-22T09:42:56.234Z,7
2017-01-22T09:44:10.006Z,7
2017-01-22T09:45:23.562Z,7
2017-01-22T09:46:37.510Z,7
2017-01-22T09:47:51.047Z,7
2017-01-22T09:49:04.558Z,7
2017-01-22T09:50:19.346Z,7
2017-01-22T09:51:33.037Z,7
2017-01-22T09:52:46.572Z,7
2017-01-22T09:54:01.984Z,7
2017-01-22T09:55:16.633Z,7
2017-01-22T09:56:30.429Z,7
2017-01-22T09:57:44.349Z,7
2017-01-22T09:58:57.978Z,7
2017-01-22T10:00:11.870Z,7
2017-01-22T10:01:25.393Z,7
2017-01-22T10:02:39.737Z,7
2017-01-22T10:03:53.237Z,7
2017-01-22T10:05:06.739Z,7
2017-01-22T10:06:22.027Z,7
2017-01-22T10:07:35.546Z,7
2017-01-22T10:08:49.671Z,7
2017-01-22T10:10:03.190Z,7
2017-01-22T10:11:16.796Z,7
2017-01-22T10:12:32.113Z,7
2017-01-22T10:13:45.612Z,7
2017-01-22T10:14:59.390Z,7
2017-01-22T10:16:13.015Z,7
2017-01-22T10:17:26.556Z,7
2017-01-22T10:18:40.100Z,7
2017-01-22T10:19:53.593Z,7
2017-01-22T10:21:07.493Z,7
2017-01-22T10:22:21.036Z,7
2017-01-22T10:23:34.470Z,7
2017-01-22T10:24:48.015Z,7
2017-01-22T10:26:01.513Z,7
2017-01-22T10:27:15.330Z,7
2017-01-22T10:28:28.806Z,7
2017-01-22T10:29:42.277Z,7
2017-01-22T10:30:56.191Z,7
2017-01-22T10:32:09.695Z,7
2017-01-22T10:33:23.461Z,7
2017-01-22T10:34:37.007Z,8
2017-01-22T10:35:50.513Z,7
2017-01-22T10:37:03.969Z,8
2017-01-22T10:38:17.484Z,8
2017-01-22T10:39:31.077Z,8
2017-01-22T10:40:46.837Z,8
2017-01-22T10:42:00.412Z,8
2017-01-22T10:43:14.512Z,8
2017-01-22T10:44:27.961Z,8
2017-01-22T10:45:42.247Z,8
2017-01-22T10:47:06.033Z,8
2017-01-22T10:48:23.086Z,8
2017-01-22T10:49:36.644Z,8
2017-01-22T10:50:50.183Z,8
2017-01-22T10:52:04.004Z,8
2017-01-22T10:53:18.047Z,8
2017-01-22T10:54:31.618Z,8
2017-01-22T10:55:45.217Z,8
2017-01-22T10:56:58.818Z,8
2017-01-22T10:58:13.671Z,8
2017-01-22T10:59:27.207Z,8
2017-01-22T11:00:40.739Z,8
2017-01-22T11:01:54.410Z,8
2017-01-22T11:03:09.395Z,8
2017-01-22T11:04:23.578Z,8
2017-01-22T11:05:37.163Z,8
2017-01-22T11:06:50.854Z,8
2017-01-22T11:08:04.419Z,8
2017-01-22T11:09:18.778Z,8
2017-01-22T11:10:32.757Z,8
2017-01-22T11:11:46.410Z,8
2017-01-22T11:13:00.036Z,9
2017-01-22T11:14:13.748Z,9
2017-01-22T11:15:27.373Z,9
2017-01-22T11:16:41.357Z,9
2017-01-22T11:17:55.030Z,9
2017-01-22T11:19:08.715Z,9
2017-01-22T11:20:22.825Z,9
2017-01-22T11:21:36.727Z,9
2017-01-22T11:22:50.722Z,9
2017-01-22T11:24:05.354Z,9
2017-01-22T11:25:18.923Z,9
2017-01-22T11:26:32.352Z,9
2017-01-22T11:27:45.833Z,9
2017-01-22T11:28:59.625Z,9
2017-01-22T11:30:14.473Z,9
2017-01-22T11:31:28.065Z,9
2017-01-22T11:32:42.162Z,9
2017-01-22T11:33:55.723Z,9
2017-01-22T11:35:09.653Z,9
2017-01-22T11:36:23.090Z,9
2017-01-22T11:37:36.992Z,9
2017-01-22T11:38:50.590Z,9
2017-01-22T11:40:04.274Z,9
2017-01-22T11:41:18.591Z,9
2017-01-22T11:42:32.608Z,9
2017-01-22T11:43:46.331Z,9
2017-01-22T11:44:59.795Z,9
2017-01-22T11:46:14.806Z,9
2017-01-22T11:47:29.026Z,9
2017-01-22T11:48:42.622Z,9
2017-01-22T11:49:56.259Z,9
2017-01-22T11:51:09.948Z,9
2017-01-22T11:52:23.630Z,9
2017-01-22T11:53:37.688Z,9
2017-01-22T11:54:51.482Z,9
2017-01-22T11:56:05.216Z,9
2017-01-22T11:57:21.744Z,9
2017-01-22T11:58:35.805Z,9
2017-01-22T11:59:49.716Z,9
2017-01-22T12:01:03.338Z,9
2017-01-22T12:02:18.380Z,9
2017-01-22T12:03:32.049Z,9
2017-01-22T12:04:45.642Z,9
2017-01-22T12:05:59.648Z,9
2017-01-22T12:07:13.286Z,9
2017-01-22T12:08:26.959Z,9
2017-01-22T12:09:40.916Z,9
2017-01-22T12:10:54.860Z,9
2017-01-22T12:12:09.052Z,9
2017-01-22T12:13:23.054Z,9
2017-01-22T12:14:36.908Z,9
2017-01-22T12:15:50.576Z,9
2017-01-22T12:17:04.457Z,9
2017-01-22T12:18:18.444Z,9
2017-01-22T12:19:32.570Z,9
2017-01-22T12:20:46.267Z,9
2017-01-22T12:22:00.516Z,9
2017-01-22T12:23:14.845Z,9
2017-01-22T12:24:30.238Z,9
2017-01-22T12:25:43.685Z,9
2017-01-22T12:26:57.773Z,9
2017-01-22T12:28:13.254Z,9
2017-01-22T12:29:28.124Z,9
2017-01-22T12:30:42.837Z,9
2017-01-22T12:31:56.931Z,9
2017-01-22T12:33:12.446Z,9
2017-01-22T12:34:27.089Z,9
2017-01-22T12:35:41.309Z,9
2017-01-22T12:36:58.723Z,9
2017-01-22T12:38:16.081Z,10
2017-01-22T12:39:31.309Z,10
2017-01-22T12:40:45.525Z,10
2017-01-22T12:42:04.364Z,10
2017-01-22T12:43:18.068Z,10
2017-01-22T12:44:34.169Z,10
2017-01-22T12:45:49.416Z,10
2017-01-22T12:47:04.001Z,10
2017-01-22T12:48:19.514Z,10
2017-01-22T12:49:33.527Z,10
2017-01-22T12:50:48.704Z,10
2017-01-22T12:52:05.031Z,10
2017-01-22T12:53:21.522Z,10
2017-01-22T12:54:37.955Z,10
2017-01-22T12:55:52.239Z,10
2017-01-22T12:57:06.316Z,10
2017-01-22T12:58:21.557Z,10
2017-01-22T12:59:36.661Z,10
2017-01-22T13:00:51.990Z,10
2017-01-22T13:02:05.780Z,10
2017-01-22T13:03:21.051Z,10
2017-01-22T13:04:35.328Z,10
2017-01-22T13:05:49.001Z,10
2017-01-22T13:07:03.168Z,10
2017-01-22T13:08:19.033Z,10
2017-01-22T13:09:33.566Z,10
2017-01-22T13:10:47.559Z,10
2017-01-22T13:12:01.054Z,10
2017-01-22T13:13:14.921Z,10
2017-01-22T13:14:31.512Z,10
2017-01-22T13:15:44.999Z,10
2017-01-22T13:16:58.626Z,10
2017-01-22T13:18:12.522Z,10
2017-01-22T13:19:27.815Z,10
2017-01-22T13:20:42.442Z,10
2017-01-22T13:21:58.148Z,11
2017-01-22T13:23:14.741Z,11
2017-01-22T13:24:29.403Z,11
2017-01-22T13:25:43.320Z,11
2017-01-22T13:26:58.762Z,11
2017-01-22T13:28:12.681Z,11
2017-01-22T13:29:26.454Z,11
2017-01-22T13:30:40.090Z,11
2017-01-22T13:31:54.135Z,11
2017-01-22T13:33:08.475Z,11
2017-01-22T13:34:22.210Z,11
2017-01-22T13:35:36.243Z,11
2017-01-22T13:36:49.911Z,11
2017-01-22T13:38:03.919Z,11
2017-01-22T13:39:17.717Z,11
2017-01-22T13:40:31.267Z,11
2017-01-22T13:41:44.939Z,11
2017-01-22T13:42:58.569Z,11
2017-01-22T13:44:12.866Z,11
2017-01-22T13:45:26.672Z,11
2017-01-22T13:46:40.266Z,11
2017-01-22T13:47:55.027Z,11
2017-01-22T13:49:08.588Z,11
2017-01-22T13:50:23.467Z,11
2017-01-22T13:51:39.451Z,11
2017-01-22T13:52:53.079Z,11
2017-01-22T13:54:06.623Z,11
2017-01-22T13:55:20.978Z,11
2017-01-22T13:56:34.851Z,11
2017-01-22T13:57:48.868Z,11
2017-01-22T13:59:03.038Z,11
2017-01-22T14:00:17.616Z,11
2017-01-22T14:01:31.171Z,11
2017-01-22T14:02:45.592Z,11
2017-01-22T14:03:59.560Z,11
2017-01-22T14:05:13.040Z,11
2017-01-22T14:06:27.315Z,11
2017-01-22T14:07:40.911Z,11
2017-01-22T14:08:55.284Z,11
2017-01-22T14:10:10.408Z,11
2017-01-22T14:11:24.057Z,11
2017-01-22T14:12:38.385Z,11
2017-01-22T14:13:53.418Z,11
2017-01-22T14:15:07.143Z,11
2017-01-22T14:16:21.883Z,11
2017-01-22T14:17:35.998Z,11
2017-01-22T14:18:50.011Z,11
2017-01-22T14:20:03.636Z,11
2017-01-22T14:21:18.537Z,11
2017-01-22T14:22:32.026Z,11
2017-01-22T14:23:45.493Z,11
2017-01-22T14:24:58.994Z,11
2017-01-22T14:26:12.786Z,11
2017-01-22T14:27:41.802Z,11
2017-01-22T14:28:55.514Z,11
2017-01-22T14:30:09.259Z,11
2017-01-22T14:31:25.600Z,11
2017-01-22T14:32:40.425Z,11
2017-01-22T14:33:54.243Z,11
2017-01-22T14:35:08.307Z,11
2017-01-22T14:36:22.213Z,11
2017-01-22T14:37:36.778Z,11
2017-01-22T14:38:50.936Z,11
2017-01-22T14:40:05.204Z,11
2017-01-22T14:41:18.990Z,11
2017-01-22T14:42:32.779Z,11
2017-01-22T14:43:46.289Z,11
2017-01-22T14:45:01.346Z,11
2017-01-22T14:46:15.468Z,11
2017-01-22T14:47:30.374Z,11
2017-01-22T14:48:45.411Z,11
2017-01-22T14:50:00.472Z,11
2017-01-22T14:51:15.138Z,11
2017-01-22T14:52:29.101Z,11
2017-01-22T14:53:44.150Z,11
2017-01-22T14:54:57.969Z,11
2017-01-22T14:56:13.027Z,11
2017-01-22T14:57:27.016Z,11
2017-01-22T14:58:41.206Z,11
2017-01-22T14:59:55.143Z,11
2017-01-22T15:01:08.771Z,11
2017-01-22T15:02:22.837Z,11
2017-01-22T15:03:37.014Z,11
2017-01-22T15:04:51.373Z,11
2017-01-22T15:06:05.660Z,11
2017-01-22T15:07:19.725Z,12
2017-01-22T15:08:33.881Z,11
2017-01-22T15:09:47.441Z,11
2017-01-22T15:11:01.335Z,11
2017-01-22T15:12:15.669Z,11
2017-01-22T15:13:29.131Z,12
2017-01-22T15:14:43.186Z,12
2017-01-22T15:15:57.213Z,12
2017-01-22T15:17:13.041Z,12
2017-01-22T15:18:27.282Z,12
2017-01-22T15:19:40.996Z,11
2017-01-22T15:20:55.194Z,11
2017-01-22T15:22:08.849Z,11
2017-01-22T15:23:22.769Z,11
2017-01-22T15:24:36.932Z,11
2017-01-22T15:25:50.548Z,11
2017-01-22T15:27:04.166Z,11
2017-01-22T15:28:17.676Z,11
2017-01-22T15:29:31.793Z,11
2017-01-22T15:30:45.245Z,11
2017-01-22T15:31:59.863Z,11
2017-01-22T15:33:13.522Z,11
2017-01-22T15:34:27.140Z,11
2017-01-22T15:35:41.092Z,11
2017-01-22T15:36:54.778Z,11
2017-01-22T15:38:08.466Z,11
2017-01-22T15:39:22.368Z,11
2017-01-22T15:40:35.952Z,11
2017-01-22T15:41:49.976Z,11
2017-01-22T15:43:03.689Z,11
2017-01-22T15:44:17.337Z,11
2017-01-22T15:45:32.116Z,11
2017-01-22T15:46:45.608Z,11
2017-01-22T15:48:01.599Z,11
2017-01-22T15:49:15.119Z,11
2017-01-22T15:50:30.026Z,11
2017-01-22T15:51:43.671Z,11
2017-01-22T15:52:57.296Z,11
2017-01-22T15:54:11.239Z,11
2017-01-22T15:55:26.076Z,11
2017-01-22T15:56:39.651Z,11
2017-01-22T15:57:53.740Z,11
2017-01-22T15:59:07.410Z,11
2017-01-22T16:00:21.292Z,11
2017-01-22T16:01:34.765Z,11
2017-01-22T16:02:48.678Z,11
2017-01-22T16:04:02.342Z,11
2017-01-22T16:05:15.816Z,11
2017-01-22T16:06:30.493Z,11
2017-01-22T16:07:43.999Z,11
2017-01-22T16:08:57.485Z,11
2017-01-22T16:10:11.023Z,11
2017-01-22T16:11:24.644Z,11
2017-01-22T16:12:38.885Z,11
2017-01-22T16:13:52.376Z,11
2017-01-22T16:15:06.274Z,11
2017-01-22T16:16:20.028Z,11
2017-01-22T16:17:33.553Z,11
2017-01-22T16:18:47.424Z,11
2017-01-22T16:20:01.020Z,11
2017-01-22T16:21:14.936Z,11
2017-01-22T16:22:28.581Z,11
2017-01-22T16:23:42.150Z,11
2017-01-22T16:24:55.998Z,11
2017-01-22T16:26:09.766Z,11
2017-01-22T16:27:23.337Z,11
2017-01-22T16:28:36.832Z,11
2017-01-22T16:29:50.429Z,11
2017-01-22T16:31:04.340Z,11
2017-01-22T16:32:19.099Z,11
2017-01-22T16:34:23.780Z,11
2017-01-22T16:35:37.300Z,11
2017-01-22T16:36:51.511Z,11
2017-01-22T16:39:35.197Z,11
2017-01-22T16:40:48.733Z,11
2017-01-22T16:42:02.710Z,11
2017-01-22T16:43:16.725Z,11
2017-01-22T16:44:30.300Z,11
2017-01-22T16:45:45.113Z,10
2017-01-22T16:46:58.558Z,10
2017-01-22T16:48:12.993Z,10
2017-01-22T16:49:26.913Z,10
2017-01-22T16:50:40.461Z,10
2017-01-22T16:51:54.480Z,10
2017-01-22T16:53:07.956Z,10
2017-01-22T16:54:21.674Z,10
2017-01-22T16:55:35.697Z,10
2017-01-22T16:56:49.640Z,10
2017-01-22T16:58:03.274Z,10
2017-01-22T16:59:17.230Z,10
2017-01-22T17:00:31.139Z,10
2017-01-22T17:01:45.116Z,10
2017-01-22T17:02:59.977Z,10
2017-01-22T17:04:13.904Z,10
2017-01-22T17:05:28.608Z,10
2017-01-22T17:06:44.898Z,10
2017-01-22T17:07:58.761Z,10
2017-01-22T17:09:12.309Z,10
2017-01-22T17:10:26.015Z,10
2017-01-22T17:11:40.613Z,10
2017-01-22T17:12:54.368Z,10
2017-01-22T17:14:08.991Z,10
2017-01-22T17:15:22.909Z,10
2017-01-22T17:16:37.357Z,10
2017-01-22T17:17:52.432Z,10
2017-01-22T17:19:06.075Z,10
2017-01-22T17:20:19.883Z,10
2017-01-22T17:21:33.538Z,10
2017-01-22T17:22:47.083Z,10
2017-01-22T17:24:01.223Z,10
2017-01-22T17:25:14.866Z,10
2017-01-22T17:26:28.391Z,9
2017-01-22T17:27:42.069Z,9
2017-01-22T17:28:56.152Z,9
2017-01-22T17:30:09.610Z,9
2017-01-22T17:31:23.184Z,9
2017-01-22T17:32:37.119Z,9
2017-01-22T17:33:50.602Z,9
2017-01-22T17:35:04.252Z,9
2017-01-22T17:36:17.762Z,9
2017-01-22T17:37:32.951Z,9
2017-01-22T17:38:46.749Z,9
2017-01-22T17:40:00.347Z,9
2017-01-22T17:41:14.854Z,9
2017-01-22T17:42:28.749Z,9
2017-01-22T17:43:42.294Z,9
2017-01-22T17:44:56.166Z,9
2017-01-22T17:46:09.740Z,9
2017-01-22T17:47:23.374Z,9
2017-01-22T17:48:37.035Z,9
2017-01-22T17:49:50.492Z,9
2017-01-22T17:51:04.904Z,9
2017-01-22T17:52:18.398Z,9
2017-01-22T17:53:32.488Z,9
2017-01-22T17:54:46.472Z,9
2017-01-22T17:56:00.103Z,9
2017-01-22T17:57:14.033Z,9
2017-01-22T17:58:27.582Z,8
2017-01-22T17:59:41.604Z,8
2017-01-22T18:00:55.151Z,8
2017-01-22T18:02:08.795Z,8
2017-01-22T18:03:22.718Z,8
2017-01-22T18:04:37.474Z,8
2017-01-22T18:05:51.578Z,8
2017-01-22T18:07:05.173Z,8